createdAt,value
2018-09-18T00:00:30.080Z,0.70
2018-09-18T00:02:58.854Z,0.60
2018-09-18T00:05:27.624Z,0.83
2018-09-18T00:07:56.536Z,0.77
2018-09-18T00:10:25.255Z,1.07
2018-09-18T00:12:54.212Z,0.83
2018-09-18T00:15:23.104Z,1.00
2018-09-18T00:17:51.766Z,1.30
2018-09-18T00:20:20.478Z,0.97
2018-09-18T00:22:49.288Z,0.87
2018-09-18T00:25:17.950Z,0.90
2018-09-18T00:27:46.649Z,0.97
2018-09-18T00:30:15.300Z,0.73
2018-09-18T00:32:44.060Z,0.87
2018-09-18T00:35:12.743Z,0.63
2018-09-18T00:37:41.342Z,0.80
2018-09-18T00:40:10.099Z,0.80
2018-09-18T00:42:38.765Z,1.03
2018-09-18T00:46:10.940Z,0.90
2018-09-18T00:48:39.613Z,1.00
2018-09-18T00:51:08.550Z,0.90
2018-09-18T00:53:37.227Z,1.00
2018-09-18T00:56:06.138Z,1.20
2018-09-18T00:58:34.881Z,0.90
2018-09-18T01:01:03.880Z,1.13
2018-09-18T01:03:32.484Z,0.67
2018-09-18T01:06:01.394Z,0.90
2018-09-18T01:08:30.261Z,0.60
2018-09-18T01:10:58.949Z,0.80
2018-09-18T01:13:27.879Z,0.73
2018-09-18T01:15:56.626Z,0.80
2018-09-18T01:18:29.678Z,1.13
2018-09-18T01:20:58.533Z,1.23
2018-09-18T01:23:27.307Z,0.93
2018-09-18T01:25:55.959Z,1.13
2018-09-18T01:28:24.779Z,0.80
2018-09-18T01:30:53.552Z,0.80
2018-09-18T01:33:22.185Z,0.60
2018-09-18T01:35:51.143Z,1.10
2018-09-18T01:38:19.830Z,0.50
2018-09-18T01:40:48.508Z,0.90
2018-09-18T01:43:17.394Z,0.80
2018-09-18T01:45:46.280Z,0.50
2018-09-18T01:48:15.049Z,0.80
2018-09-18T01:50:44.168Z,1.07
2018-09-18T01:53:12.748Z,0.90
2018-09-18T01:55:41.606Z,0.93
2018-09-18T01:58:10.259Z,0.90
2018-09-18T02:00:38.987Z,0.87
2018-09-18T02:03:07.775Z,1.17
2018-09-18T02:05:36.424Z,0.60
2018-09-18T02:08:05.071Z,0.97
2018-09-18T02:10:33.902Z,0.80
2018-09-18T02:13:02.645Z,0.87
2018-09-18T02:15:31.479Z,0.70
2018-09-18T02:18:00.526Z,1.37
2018-09-18T02:20:29.255Z,1.33
2018-09-18T02:22:57.899Z,0.93
2018-09-18T02:25:26.745Z,1.03
2018-09-18T02:27:55.508Z,1.00
2018-09-18T02:30:24.403Z,0.87
2018-09-18T02:32:53.315Z,0.70
2018-09-18T02:35:21.999Z,1.20
2018-09-18T02:37:51.049Z,1.10
2018-09-18T02:40:19.831Z,0.87
2018-09-18T02:42:48.851Z,0.90
2018-09-18T02:45:17.555Z,0.87
2018-09-18T02:47:46.543Z,1.20
2018-09-18T02:50:15.449Z,1.00
2018-09-18T02:52:44.505Z,0.80
2018-09-18T02:55:13.190Z,0.93
2018-09-18T02:57:41.887Z,0.53
2018-09-18T03:00:11.128Z,1.00
2018-09-18T03:02:40.082Z,0.80
2018-09-18T03:05:08.860Z,0.80
2018-09-18T03:07:37.655Z,1.13
2018-09-18T03:10:06.947Z,0.70
2018-09-18T03:12:35.803Z,1.00
2018-09-18T03:16:07.467Z,1.13
2018-09-18T03:18:36.566Z,0.80
2018-09-18T03:21:05.687Z,0.80
2018-09-18T03:23:34.729Z,0.90
2018-09-18T03:26:03.447Z,1.10
2018-09-18T03:28:32.310Z,1.00
2018-09-18T03:31:01.262Z,0.70
2018-09-18T03:33:30.319Z,0.90
2018-09-18T03:35:59.265Z,1.10
2018-09-18T03:38:28.055Z,0.80
2018-09-18T03:40:56.679Z,0.93
2018-09-18T03:43:25.712Z,0.90
2018-09-18T03:45:54.511Z,0.97
2018-09-18T03:48:23.621Z,0.90
2018-09-18T03:50:52.186Z,1.43
2018-09-18T03:53:20.946Z,0.83
2018-09-18T03:55:49.813Z,1.30
2018-09-18T03:58:18.539Z,1.27
2018-09-18T04:00:47.206Z,1.10
2018-09-18T04:03:16.201Z,1.00
2018-09-18T04:05:45.076Z,0.80
2018-09-18T04:08:14.243Z,0.97
2018-09-18T04:10:43.264Z,0.87
2018-09-18T04:13:12.114Z,1.27
2018-09-18T04:15:41.631Z,1.43
2018-09-18T04:18:10.942Z,1.00
2018-09-18T04:20:39.638Z,1.30
2018-09-18T04:23:08.322Z,1.37
2018-09-18T04:25:37.081Z,1.20
2018-09-18T04:28:05.841Z,1.37
2018-09-18T04:30:34.534Z,1.63
2018-09-18T04:33:03.296Z,1.50
2018-09-18T04:35:32.120Z,1.20
2018-09-18T04:38:00.954Z,1.10
2018-09-18T04:40:29.792Z,0.97
2018-09-18T04:42:58.588Z,1.07
2018-09-18T04:45:27.314Z,1.03
2018-09-18T04:47:56.065Z,1.40
2018-09-18T04:50:24.820Z,1.20
2018-09-18T04:52:53.547Z,1.00
2018-09-18T04:55:22.380Z,1.20
2018-09-18T04:57:51.222Z,1.07
2018-09-18T05:00:19.913Z,0.90
2018-09-18T05:02:48.617Z,1.33
2018-09-18T05:05:17.551Z,1.10
2018-09-18T05:07:46.564Z,1.40
2018-09-18T05:10:15.579Z,0.90
2018-09-18T05:12:44.363Z,1.00
2018-09-18T05:15:13.265Z,1.03
2018-09-18T05:17:42.007Z,0.90
2018-09-18T05:20:10.815Z,0.83
2018-09-18T05:22:39.527Z,1.00
2018-09-18T05:25:08.651Z,1.20
2018-09-18T05:27:37.434Z,1.40
2018-09-18T05:30:06.585Z,1.10
2018-09-18T05:32:35.477Z,0.80
2018-09-18T05:35:04.290Z,1.10
2018-09-18T05:37:33.055Z,0.77
2018-09-18T05:40:01.805Z,0.70
2018-09-18T05:42:31.027Z,1.40
2018-09-18T05:44:59.791Z,0.80
2018-09-18T05:47:28.622Z,0.93
2018-09-18T05:49:57.368Z,1.20
2018-09-18T05:52:26.201Z,1.20
2018-09-18T05:54:54.810Z,1.03
2018-09-18T05:57:23.560Z,1.00
2018-09-18T05:59:52.327Z,0.97
2018-09-18T06:02:21.107Z,0.80
2018-09-18T06:04:49.868Z,0.90
2018-09-18T06:07:18.501Z,0.80
2018-09-18T06:09:47.569Z,0.70
2018-09-18T06:12:16.962Z,0.97
2018-09-18T06:14:45.596Z,0.93
2018-09-18T06:17:14.560Z,1.20
2018-09-18T06:19:43.415Z,0.90
2018-09-18T06:22:12.060Z,1.30
2018-09-18T06:24:40.695Z,1.13
2018-09-18T06:27:10.004Z,0.93
2018-09-18T06:29:38.822Z,0.70
2018-09-18T06:32:07.497Z,0.93
2018-09-18T06:34:36.151Z,0.83
2018-09-18T06:37:04.969Z,0.90
2018-09-18T06:39:33.681Z,0.70
2018-09-18T06:42:02.411Z,0.87
2018-09-18T06:44:31.058Z,0.80
2018-09-18T06:46:59.811Z,0.90
2018-09-18T06:49:28.549Z,0.63
2018-09-18T06:51:57.258Z,0.87
2018-09-18T06:54:26.325Z,1.07
2018-09-18T06:56:55.220Z,0.80
2018-09-18T06:59:24.065Z,0.50
2018-09-18T07:01:53.208Z,0.80
2018-09-18T07:04:22.091Z,0.60
2018-09-18T07:06:50.708Z,0.63
2018-09-18T07:09:19.394Z,0.80
2018-09-18T07:11:48.432Z,0.70
2018-09-18T07:14:17.573Z,0.50
2018-09-18T07:16:46.535Z,0.90
2018-09-18T07:19:15.886Z,0.67
2018-09-18T07:21:44.616Z,0.50
2018-09-18T07:24:13.602Z,0.70
2018-09-18T07:26:42.320Z,0.63
2018-09-18T07:29:11.618Z,0.70
2018-09-18T07:31:40.419Z,0.83
2018-09-18T07:34:09.406Z,0.67
2018-09-18T07:36:38.141Z,0.57
2018-09-18T07:39:09.860Z,0.63
2018-09-18T07:41:38.766Z,0.60
2018-09-18T07:44:07.393Z,0.73
2018-09-18T07:46:36.628Z,0.67
2018-09-18T07:49:05.986Z,0.50
2018-09-18T07:51:35.415Z,0.70
2018-09-18T07:54:04.119Z,0.60
2018-09-18T07:56:33.186Z,0.53
2018-09-18T07:59:02.807Z,0.67
2018-09-18T08:01:32.682Z,0.90
2018-09-18T08:04:01.406Z,0.50
2018-09-18T08:06:30.288Z,0.80
2018-09-18T08:08:59.154Z,0.70
2018-09-18T08:11:28.094Z,1.03
2018-09-18T08:13:56.742Z,0.70
2018-09-18T08:16:25.418Z,0.70
2018-09-18T08:18:54.319Z,0.93
2018-09-18T08:24:06.321Z,0.60
2018-09-18T08:26:35.176Z,0.90
2018-09-18T08:29:04.111Z,0.60
2018-09-18T08:31:33.169Z,0.67
2018-09-18T08:34:02.103Z,0.60
2018-09-18T08:36:31.380Z,0.80
2018-09-18T08:39:00.266Z,0.80
2018-09-18T08:41:29.177Z,0.90
2018-09-18T08:43:59.026Z,1.10
2018-09-18T08:46:27.769Z,0.67
2018-09-18T08:48:57.771Z,0.60
2018-09-18T08:51:27.085Z,0.47
2018-09-18T08:53:56.089Z,0.40
2018-09-18T08:56:24.954Z,0.50
2018-09-18T08:58:53.740Z,0.90
2018-09-18T09:01:22.602Z,0.60
2018-09-18T09:03:51.584Z,0.70
2018-09-18T09:06:20.673Z,0.77
2018-09-18T09:08:49.571Z,0.50
2018-09-18T09:11:18.255Z,0.70
2018-09-18T09:13:47.088Z,0.70
2018-09-18T09:16:16.323Z,0.70
2018-09-18T09:18:45.010Z,0.40
2018-09-18T09:21:14.070Z,0.60
2018-09-18T09:23:42.794Z,0.67
2018-09-18T09:26:11.382Z,0.77
2018-09-18T09:28:40.095Z,0.80
2018-09-18T09:31:08.864Z,0.63
2018-09-18T09:33:37.685Z,0.60
2018-09-18T09:36:06.962Z,0.53
2018-09-18T09:38:35.691Z,0.53
2018-09-18T09:41:04.480Z,0.90
2018-09-18T09:43:33.108Z,0.73
2018-09-18T09:46:01.944Z,0.60
2018-09-18T09:48:34.348Z,0.70
2018-09-18T09:51:04.563Z,0.97
2018-09-18T09:53:33.638Z,0.50
2018-09-18T09:56:02.458Z,0.63
2018-09-18T09:58:31.253Z,0.60
2018-09-18T10:01:05.119Z,0.67
2018-09-18T10:03:33.897Z,0.50
2018-09-18T10:06:02.814Z,0.80
2018-09-18T10:08:31.641Z,0.70
2018-09-18T10:11:00.384Z,0.57
2018-09-18T10:13:29.155Z,0.77
2018-09-18T10:15:58.091Z,0.70
2018-09-18T10:18:26.928Z,0.50
2018-09-18T10:20:56.005Z,0.57
2018-09-18T10:23:24.682Z,0.60
2018-09-18T10:25:53.565Z,0.60
2018-09-18T10:28:22.388Z,0.53
2018-09-18T10:30:51.114Z,0.50
2018-09-18T10:33:19.911Z,0.60
2018-09-18T10:35:48.766Z,0.47
2018-09-18T10:38:17.465Z,0.57
2018-09-18T10:40:46.694Z,0.60
2018-09-18T10:43:15.582Z,0.60
2018-09-18T10:45:44.390Z,0.60
2018-09-18T10:48:13.001Z,0.90
2018-09-18T10:50:41.973Z,0.60
2018-09-18T10:53:10.869Z,0.60
2018-09-18T10:55:39.793Z,0.50
2018-09-18T10:58:08.602Z,0.50
2018-09-18T11:00:37.544Z,0.40
2018-09-18T11:03:06.238Z,0.40
2018-09-18T11:05:34.966Z,0.47
2018-09-18T11:08:03.784Z,0.33
2018-09-18T11:10:32.614Z,0.50
2018-09-18T11:13:01.594Z,0.53
2018-09-18T11:15:30.626Z,0.50
2018-09-18T11:17:59.314Z,0.83
2018-09-18T11:20:28.062Z,0.60
2018-09-18T11:22:57.200Z,0.80
2018-09-18T11:25:26.092Z,0.47
2018-09-18T11:27:54.942Z,0.80
2018-09-18T11:30:23.636Z,0.30
2018-09-18T11:32:52.509Z,0.50
2018-09-18T11:35:21.086Z,0.40
2018-09-18T11:37:50.451Z,0.40
2018-09-18T11:40:19.299Z,0.53
2018-09-18T11:42:48.277Z,0.50
2018-09-18T11:45:17.132Z,0.20
2018-09-18T11:47:45.854Z,0.57
2018-09-18T11:50:14.704Z,0.40
2018-09-18T11:52:43.408Z,0.50
2018-09-18T11:55:12.120Z,0.47
2018-09-18T11:57:41.120Z,0.50
2018-09-18T12:00:09.967Z,0.70
2018-09-18T12:02:38.833Z,0.43
2018-09-18T12:05:07.564Z,0.40
2018-09-18T12:07:36.612Z,0.40
2018-09-18T12:10:05.423Z,0.73
2018-09-18T12:12:34.179Z,0.40
2018-09-18T12:15:02.881Z,0.40
2018-09-18T12:17:31.565Z,0.57
2018-09-18T12:20:00.464Z,0.67
2018-09-18T12:22:29.254Z,0.33
2018-09-18T12:24:58.133Z,0.60
2018-09-18T12:27:26.677Z,0.40
2018-09-18T12:29:56.292Z,0.60
2018-09-18T12:32:25.193Z,0.30
2018-09-18T12:34:55.185Z,0.63
2018-09-18T12:37:24.033Z,0.50
2018-09-18T12:39:52.946Z,0.30
2018-09-18T12:42:21.701Z,0.50
2018-09-18T12:44:50.495Z,0.60
2018-09-18T12:47:19.225Z,0.40
2018-09-18T12:49:48.087Z,0.30
2018-09-18T12:52:16.665Z,0.40
2018-09-18T12:54:45.486Z,0.67
2018-09-18T12:57:14.495Z,0.40
2018-09-18T12:59:43.223Z,1.07
2018-09-18T13:02:12.106Z,0.80
2018-09-18T13:04:40.921Z,0.60
2018-09-18T13:07:10.379Z,0.60
2018-09-18T13:09:39.264Z,0.50
2018-09-18T13:12:08.077Z,0.50
2018-09-18T13:14:36.848Z,0.53
2018-09-18T13:17:05.722Z,0.40
2018-09-18T13:19:34.642Z,0.47
2018-09-18T13:22:03.370Z,0.50
2018-09-18T13:24:32.155Z,0.30
2018-09-18T13:27:01.054Z,0.43
2018-09-18T13:29:29.919Z,0.73
2018-09-18T13:31:58.713Z,0.60
2018-09-18T13:34:27.366Z,0.80
2018-09-18T13:36:56.147Z,0.60
2018-09-18T13:39:24.850Z,0.73
2018-09-18T13:41:53.712Z,0.60
2018-09-18T13:44:22.943Z,0.70
2018-09-18T13:46:51.785Z,0.50
2018-09-18T13:49:20.570Z,0.50
2018-09-18T13:51:49.502Z,0.60
2018-09-18T13:54:18.727Z,0.60
2018-09-18T13:56:47.872Z,0.50
2018-09-18T13:59:16.816Z,1.10
2018-09-18T14:01:45.721Z,0.60
2018-09-18T14:04:14.317Z,0.40
2018-09-18T14:06:43.209Z,0.90
2018-09-18T14:09:12.859Z,1.00
2018-09-18T14:11:41.655Z,0.87
2018-09-18T14:14:10.462Z,0.97
2018-09-18T14:16:39.327Z,1.20
2018-09-18T14:19:08.038Z,0.70
2018-09-18T14:21:36.755Z,0.77
2018-09-18T14:24:05.889Z,0.80
2018-09-18T14:26:35.069Z,0.80
2018-09-18T14:29:03.858Z,0.90
2018-09-18T14:31:33.034Z,0.80
2018-09-18T14:34:01.951Z,0.80
2018-09-18T14:36:31.059Z,1.00
2018-09-18T14:38:59.806Z,0.80
2018-09-18T14:41:28.679Z,0.80
2018-09-18T14:43:57.644Z,0.73
2018-09-18T14:46:26.238Z,1.10
2018-09-18T14:49:58.405Z,0.70
2018-09-18T14:52:27.194Z,1.10
2018-09-18T14:54:55.976Z,1.00
2018-09-18T14:57:25.255Z,1.00
2018-09-18T14:59:54.164Z,0.77
2018-09-18T15:02:22.959Z,0.80
2018-09-18T15:04:51.881Z,1.00
2018-09-18T15:07:20.629Z,0.80
2018-09-18T15:09:49.406Z,0.97
2018-09-18T15:12:18.230Z,0.90
2018-09-18T15:14:47.386Z,0.93
2018-09-18T15:17:16.012Z,1.17
2018-09-18T15:19:44.989Z,1.00
2018-09-18T15:22:13.889Z,1.07
2018-09-18T15:24:42.785Z,0.93
2018-09-18T15:27:11.578Z,0.87
2018-09-18T15:29:40.432Z,1.13
2018-09-18T15:32:09.462Z,1.30
2018-09-18T15:34:38.099Z,1.10
2018-09-18T15:37:06.790Z,1.23
2018-09-18T15:39:35.661Z,1.00
2018-09-18T15:42:04.499Z,1.77
2018-09-18T15:44:33.203Z,0.90
2018-09-18T15:47:02.214Z,1.20
2018-09-18T15:49:31.197Z,1.07
2018-09-18T15:51:59.942Z,0.97
2018-09-18T15:54:28.750Z,1.10
2018-09-18T15:56:57.621Z,1.07
2018-09-18T15:59:26.355Z,1.30
2018-09-18T16:01:55.164Z,1.20
2018-09-18T16:04:23.852Z,0.60
2018-09-18T16:06:52.816Z,1.20
2018-09-18T16:09:21.865Z,1.20
2018-09-18T16:11:50.738Z,1.50
2018-09-18T16:14:19.616Z,1.40
2018-09-18T16:16:48.546Z,1.20
2018-09-18T16:19:17.682Z,1.30
2018-09-18T16:21:46.567Z,1.13
2018-09-18T16:24:15.393Z,1.10
2018-09-18T16:26:44.166Z,1.00
2018-09-18T16:29:13.084Z,0.90
2018-09-18T16:31:41.853Z,1.50
2018-09-18T16:34:10.951Z,1.13
2018-09-18T16:36:39.670Z,1.10
2018-09-18T16:39:08.624Z,1.50
2018-09-18T16:41:37.447Z,1.43
2018-09-18T16:44:06.158Z,2.07
2018-09-18T16:46:34.966Z,1.70
2018-09-18T16:49:04.754Z,1.60
2018-09-18T16:51:34.029Z,1.10
2018-09-18T16:54:02.994Z,1.33
2018-09-18T16:56:31.643Z,1.33
2018-09-18T16:59:00.483Z,1.53
2018-09-18T17:01:29.437Z,1.63
2018-09-18T17:03:58.621Z,1.40
2018-09-18T17:06:27.564Z,1.50
2018-09-18T17:08:56.254Z,1.73
2018-09-18T17:11:25.150Z,1.40
2018-09-18T17:13:53.812Z,1.40
2018-09-18T17:16:22.489Z,1.63
2018-09-18T17:18:51.338Z,1.80
2018-09-18T17:21:20.310Z,1.50
2018-09-18T17:23:49.156Z,1.40
2018-09-18T17:26:18.193Z,2.37
2018-09-18T17:28:47.101Z,2.30
2018-09-18T17:31:15.699Z,1.80
2018-09-18T17:33:44.558Z,1.30
2018-09-18T17:36:13.801Z,1.50
2018-09-18T17:38:42.576Z,2.13
2018-09-18T17:41:11.876Z,2.20
2018-09-18T17:43:40.824Z,3.20
2018-09-18T17:46:09.846Z,3.33
2018-09-18T17:48:38.507Z,4.70
2018-09-18T17:51:07.532Z,4.40
2018-09-18T17:53:36.404Z,5.43
2018-09-18T17:56:05.163Z,4.10
2018-09-18T17:58:33.922Z,3.47
2018-09-18T18:01:02.890Z,3.13
2018-09-18T18:03:31.631Z,2.87
2018-09-18T18:06:00.584Z,2.60
2018-09-18T18:08:29.582Z,2.23
2018-09-18T18:10:58.483Z,2.40
2018-09-18T18:13:27.203Z,2.60
2018-09-18T18:15:55.999Z,2.27
2018-09-18T18:18:24.914Z,1.80
2018-09-18T18:20:53.650Z,2.17
2018-09-18T18:23:22.718Z,2.70
2018-09-18T18:25:51.403Z,2.80
2018-09-18T18:28:20.877Z,2.77
2018-09-18T18:30:50.053Z,2.80
2018-09-18T18:33:19.428Z,2.50
2018-09-18T18:35:48.313Z,2.50
2018-09-18T18:38:17.243Z,2.33
2018-09-18T18:40:45.957Z,2.20
2018-09-18T18:43:15.031Z,2.23
2018-09-18T18:45:43.950Z,2.37
2018-09-18T18:48:13.268Z,2.27
2018-09-18T18:50:41.937Z,2.57
2018-09-18T18:53:10.763Z,2.30
2018-09-18T18:55:39.700Z,2.50
2018-09-18T18:58:08.541Z,2.40
2018-09-18T19:00:37.563Z,2.40
2018-09-18T19:03:06.540Z,2.73
2018-09-18T19:05:35.386Z,2.70
2018-09-18T19:08:04.939Z,2.80
2018-09-18T19:10:33.867Z,3.10
2018-09-18T19:13:02.687Z,3.87
2018-09-18T19:15:31.485Z,6.07
2018-09-18T19:18:00.193Z,7.73
2018-09-18T19:20:28.840Z,8.07
2018-09-18T19:22:57.877Z,6.93
2018-09-18T19:25:26.918Z,6.97
2018-09-18T19:27:55.894Z,6.50
2018-09-18T19:30:24.664Z,5.90
2018-09-18T19:32:53.530Z,5.53
2018-09-18T19:35:22.703Z,5.83
2018-09-18T19:37:51.890Z,6.63
2018-09-18T19:40:21.071Z,6.80
2018-09-18T19:42:49.916Z,6.50
2018-09-18T19:45:18.683Z,5.83
2018-09-18T19:47:48.050Z,4.83
2018-09-18T19:50:18.737Z,4.27
2018-09-18T19:52:48.993Z,4.00
2018-09-18T19:55:18.366Z,3.80
2018-09-18T19:57:47.320Z,4.27
2018-09-18T20:00:16.385Z,3.30
2018-09-18T20:02:45.060Z,3.70
2018-09-18T20:05:14.403Z,3.70
2018-09-18T20:07:43.471Z,3.17
2018-09-18T20:10:12.308Z,3.40
2018-09-18T20:12:41.396Z,3.30
2018-09-18T20:15:10.561Z,4.10
2018-09-18T20:17:39.524Z,4.83
2018-09-18T20:20:08.955Z,5.77
2018-09-18T20:22:37.703Z,4.60
2018-09-18T20:25:06.585Z,4.53
2018-09-18T20:27:37.256Z,4.50
2018-09-18T20:30:06.447Z,4.13
2018-09-18T20:32:35.629Z,4.77
2018-09-18T20:35:04.651Z,4.83
2018-09-18T20:37:33.526Z,4.33
2018-09-18T20:40:02.383Z,4.00
2018-09-18T20:42:31.221Z,4.07
2018-09-18T20:45:00.792Z,4.40
2018-09-18T20:47:29.785Z,3.80
2018-09-18T20:49:59.119Z,2.70
2018-09-18T20:52:28.022Z,3.10
2018-09-18T20:54:57.210Z,3.27
2018-09-18T20:57:26.179Z,3.10
2018-09-18T20:59:55.712Z,3.40
2018-09-18T21:02:24.995Z,3.30
2018-09-18T21:04:53.947Z,2.80
2018-09-18T21:07:22.918Z,2.93
2018-09-18T21:09:51.752Z,3.00
2018-09-18T21:12:21.226Z,2.70
2018-09-18T21:14:50.063Z,2.97
2018-09-18T21:17:18.794Z,3.50
2018-09-18T21:19:47.544Z,3.37
2018-09-18T21:22:16.386Z,3.57
2018-09-18T21:24:46.289Z,3.83
2018-09-18T21:27:15.589Z,4.70
2018-09-18T21:29:44.503Z,4.00
2018-09-18T21:32:13.533Z,4.20
2018-09-18T21:34:42.212Z,4.27
2018-09-18T21:37:11.710Z,4.20
2018-09-18T21:39:41.929Z,4.00
2018-09-18T21:42:11.497Z,4.43
2018-09-18T21:44:41.443Z,4.40
2018-09-18T21:47:10.244Z,4.23
2018-09-18T21:49:39.351Z,4.07
2018-09-18T21:52:08.462Z,3.80
2018-09-18T21:54:38.441Z,3.97
2018-09-18T21:57:07.475Z,3.83
2018-09-18T21:59:36.823Z,3.90
2018-09-18T22:02:05.590Z,3.87
2018-09-18T22:04:34.540Z,3.80
2018-09-18T22:07:04.040Z,3.63
2018-09-18T22:09:33.825Z,3.47
2018-09-18T22:12:03.725Z,3.10
2018-09-18T22:14:32.806Z,3.47
2018-09-18T22:17:02.549Z,3.27
2018-09-18T22:19:32.210Z,2.70
2018-09-18T22:22:01.777Z,2.80
2018-09-18T22:24:31.108Z,2.20
2018-09-18T22:27:00.357Z,2.03
2018-09-18T22:29:29.569Z,2.53
2018-09-18T22:31:58.700Z,2.63
2018-09-18T22:34:27.874Z,2.70
2018-09-18T22:36:57.278Z,2.50
2018-09-18T22:39:26.632Z,2.80
2018-09-18T22:41:55.984Z,2.50
2018-09-18T22:44:25.100Z,2.60
2018-09-18T22:46:53.818Z,3.20
2018-09-18T22:49:22.657Z,3.50
2018-09-18T22:51:51.849Z,3.30
2018-09-18T22:54:20.563Z,3.47
2018-09-18T22:56:49.645Z,3.27
2018-09-18T22:59:18.501Z,4.13
2018-09-18T23:01:47.125Z,3.83
2018-09-18T23:04:15.935Z,3.50
2018-09-18T23:06:44.733Z,3.43
2018-09-18T23:09:13.687Z,3.20
2018-09-18T23:11:42.415Z,2.60
2018-09-18T23:14:11.120Z,2.83
2018-09-18T23:16:40.379Z,2.60
2018-09-18T23:19:09.167Z,3.23
2018-09-18T23:21:37.988Z,2.80
2018-09-18T23:24:07.662Z,2.80
2018-09-18T23:26:36.537Z,2.30
2018-09-18T23:29:05.318Z,2.80
2018-09-18T23:31:34.128Z,2.53
2018-09-18T23:34:02.917Z,2.30
2018-09-18T23:36:31.601Z,2.60
2018-09-18T23:39:00.428Z,2.40
2018-09-18T23:41:29.384Z,2.33
2018-09-18T23:43:58.330Z,2.50
2018-09-18T23:46:27.298Z,2.80
2018-09-18T23:48:56.192Z,2.57
2018-09-18T23:51:25.118Z,2.73
2018-09-18T23:53:54.024Z,2.53
2018-09-18T23:56:22.720Z,2.40
2018-09-18T23:58:51.383Z,2.00
